SAT weather

San Antonio International Airport
San Antonio, Texas, United States

Public forecast

Using degrees Fahrenheit for public forecast. Weather courtesy of forecast.io.

Current aviation weather report (METAR) for San Antonio International Airport

Retrieved 2020/07/12 22:51 UTC (19 minutes ago):

KSAT 122251Z 18005KT 10SM FEW250 38/17 A2987 RMK AO2 SLP094 T03830172

Aviation forecast (TAF) for San Antonio International Airport

Retrieved 2020/07/12 18:24 UTC (5 hours ago):

TAF KSAT 121722Z 1218/1324 17008KT P6SM SCT250